sensor_id;sensor_type;location;lat;lon;timestamp;P1;durP1;ratioP1;P2;durP2;ratioP2
9801;SDS011;4940;50.900;4.672;2024-02-26T00:02:02;39.20;;;36.17;;
9801;SDS011;4940;50.900;4.672;2024-02-26T00:04:29;38.97;;;36.17;;
9801;SDS011;4940;50.900;4.672;2024-02-26T00:06:57;38.83;;;36.03;;
9801;SDS011;4940;50.900;4.672;2024-02-26T00:09:24;39.78;;;36.45;;
9801;SDS011;4940;50.900;4.672;2024-02-26T00:11:52;39.67;;;36.58;;
9801;SDS011;4940;50.900;4.672;2024-02-26T00:14:20;37.70;;;34.90;;
9801;SDS011;4940;50.900;4.672;2024-02-26T00:16:48;39.58;;;36.67;;
9801;SDS011;4940;50.900;4.672;2024-02-26T00:19:17;42.38;;;39.20;;
9801;SDS011;4940;50.900;4.672;2024-02-26T00:21:44;42.78;;;39.47;;
9801;SDS011;4940;50.900;4.672;2024-02-26T00:24:12;43.13;;;39.83;;
9801;SDS011;4940;50.900;4.672;2024-02-26T00:26:39;42.38;;;39.17;;
9801;SDS011;4940;50.900;4.672;2024-02-26T00:29:07;46.50;;;43.05;;
9801;SDS011;4940;50.900;4.672;2024-02-26T00:31:34;46.33;;;42.95;;
9801;SDS011;4940;50.900;4.672;2024-02-26T00:34:03;46.17;;;42.67;;
9801;SDS011;4940;50.900;4.672;2024-02-26T00:36:32;46.35;;;42.90;;
9801;SDS011;4940;50.900;4.672;2024-02-26T00:38:59;45.38;;;41.67;;
9801;SDS011;4940;50.900;4.672;2024-02-26T00:41:28;44.40;;;40.97;;
9801;SDS011;4940;50.900;4.672;2024-02-26T00:43:56;45.33;;;41.92;;
9801;SDS011;4940;50.900;4.672;2024-02-26T00:46:23;45.00;;;41.38;;
9801;SDS011;4940;50.900;4.672;2024-02-26T00:48:51;43.78;;;40.28;;
9801;SDS011;4940;50.900;4.672;2024-02-26T00:51:19;46.55;;;43.05;;
9801;SDS011;4940;50.900;4.672;2024-02-26T00:53:47;43.35;;;39.90;;
9801;SDS011;4940;50.900;4.672;2024-02-26T00:56:15;44.03;;;40.67;;
9801;SDS011;4940;50.900;4.672;2024-02-26T00:58:42;45.00;;;41.55;;
9801;SDS011;4940;50.900;4.672;2024-02-26T01:01:09;42.50;;;39.28;;
9801;SDS011;4940;50.900;4.672;2024-02-26T01:03:37;42.58;;;39.40;;
9801;SDS011;4940;50.900;4.672;2024-02-26T01:06:05;40.33;;;37.33;;
9801;SDS011;4940;50.900;4.672;2024-02-26T01:08:32;42.60;;;39.20;;
9801;SDS011;4940;50.900;4.672;2024-02-26T01:11:02;41.20;;;38.10;;
9801;SDS011;4940;50.900;4.672;2024-02-26T01:13:30;41.65;;;38.55;;
9801;SDS011;4940;50.900;4.672;2024-02-26T01:15:57;43.38;;;40.10;;
9801;SDS011;4940;50.900;4.672;2024-02-26T01:18:26;44.08;;;40.53;;
9801;SDS011;4940;50.900;4.672;2024-02-26T01:20:53;45.70;;;42.10;;
9801;SDS011;4940;50.900;4.672;2024-02-26T01:23:21;50.58;;;46.63;;
9801;SDS011;4940;50.900;4.672;2024-02-26T01:25:48;47.00;;;43.20;;
9801;SDS011;4940;50.900;4.672;2024-02-26T01:28:17;48.85;;;44.83;;
9801;SDS011;4940;50.900;4.672;2024-02-26T01:30:44;49.78;;;45.78;;
9801;SDS011;4940;50.900;4.672;2024-02-26T01:33:12;52.38;;;48.22;;
9801;SDS011;4940;50.900;4.672;2024-02-26T01:35:39;52.55;;;48.47;;
9801;SDS011;4940;50.900;4.672;2024-02-26T01:38:07;58.38;;;53.83;;
9801;SDS011;4940;50.900;4.672;2024-02-26T01:40:35;76.05;;;70.63;;
9801;SDS011;4940;50.900;4.672;2024-02-26T01:43:02;66.45;;;61.45;;
9801;SDS011;4940;50.900;4.672;2024-02-26T01:45:31;61.58;;;56.92;;
9801;SDS011;4940;50.900;4.672;2024-02-26T01:47:58;73.63;;;68.13;;
9801;SDS011;4940;50.900;4.672;2024-02-26T01:50:26;75.80;;;70.15;;
9801;SDS011;4940;50.900;4.672;2024-02-26T01:52:54;82.10;;;76.00;;
9801;SDS011;4940;50.900;4.672;2024-02-26T01:55:22;74.80;;;69.10;;
9801;SDS011;4940;50.900;4.672;2024-02-26T01:57:51;68.90;;;63.50;;
9801;SDS011;4940;50.900;4.672;2024-02-26T02:00:19;74.80;;;69.22;;
9801;SDS011;4940;50.900;4.672;2024-02-26T02:02:48;71.13;;;65.35;;
9801;SDS011;4940;50.900;4.672;2024-02-26T02:05:17;80.85;;;75.00;;
9801;SDS011;4940;50.900;4.672;2024-02-26T02:07:47;85.95;;;79.68;;
9801;SDS011;4940;50.900;4.672;2024-02-26T02:10:16;94.57;;;87.78;;
9801;SDS011;4940;50.900;4.672;2024-02-26T02:12:48;111.80;;;103.97;;
9801;SDS011;4940;50.900;4.672;2024-02-26T02:15:15;112.97;;;104.85;;
9801;SDS011;4940;50.900;4.672;2024-02-26T02:17:43;115.35;;;107.25;;
9801;SDS011;4940;50.900;4.672;2024-02-26T02:20:16;125.00;;;116.50;;
9801;SDS011;4940;50.900;4.672;2024-02-26T02:22:45;121.82;;;113.38;;
9801;SDS011;4940;50.900;4.672;2024-02-26T02:25:13;123.07;;;114.78;;
9801;SDS011;4940;50.900;4.672;2024-02-26T02:27:40;121.72;;;113.35;;
9801;SDS011;4940;50.900;4.672;2024-02-26T02:30:08;120.95;;;112.82;;
9801;SDS011;4940;50.900;4.672;2024-02-26T02:32:36;110.55;;;103.18;;
9801;SDS011;4940;50.900;4.672;2024-02-26T02:35:05;108.78;;;101.43;;
9801;SDS011;4940;50.900;4.672;2024-02-26T02:37:32;98.72;;;91.82;;
9801;SDS011;4940;50.900;4.672;2024-02-26T02:40:01;97.45;;;90.22;;
9801;SDS011;4940;50.900;4.672;2024-02-26T02:42:28;96.90;;;89.95;;
9801;SDS011;4940;50.900;4.672;2024-02-26T02:44:56;97.13;;;90.22;;
9801;SDS011;4940;50.900;4.672;2024-02-26T02:47:23;90.05;;;83.65;;
9801;SDS011;4940;50.900;4.672;2024-02-26T02:49:51;77.82;;;71.95;;
9801;SDS011;4940;50.900;4.672;2024-02-26T02:52:18;73.35;;;67.85;;
9801;SDS011;4940;50.900;4.672;2024-02-26T02:54:46;80.65;;;74.65;;
9801;SDS011;4940;50.900;4.672;2024-02-26T02:57:14;78.63;;;72.93;;
9801;SDS011;4940;50.900;4.672;2024-02-26T02:59:42;77.85;;;72.15;;
9801;SDS011;4940;50.900;4.672;2024-02-26T03:02:09;82.45;;;76.55;;
9801;SDS011;4940;50.900;4.672;2024-02-26T03:04:36;76.40;;;70.85;;
9801;SDS011;4940;50.900;4.672;2024-02-26T03:07:04;75.70;;;70.20;;
9801;SDS011;4940;50.900;4.672;2024-02-26T03:09:32;71.13;;;65.90;;
9801;SDS011;4940;50.900;4.672;2024-02-26T03:11:59;75.43;;;70.05;;
9801;SDS011;4940;50.900;4.672;2024-02-26T03:14:28;79.32;;;73.68;;
9801;SDS011;4940;50.900;4.672;2024-02-26T03:16:55;79.28;;;73.60;;
9801;SDS011;4940;50.900;4.672;2024-02-26T03:19:22;79.00;;;73.20;;
9801;SDS011;4940;50.900;4.672;2024-02-26T03:21:50;81.25;;;75.35;;
9801;SDS011;4940;50.900;4.672;2024-02-26T03:24:17;83.68;;;77.75;;
9801;SDS011;4940;50.900;4.672;2024-02-26T03:26:45;76.97;;;71.40;;
9801;SDS011;4940;50.900;4.672;2024-02-26T03:29:12;74.70;;;69.07;;
9801;SDS011;4940;50.900;4.672;2024-02-26T03:31:41;72.13;;;66.78;;
9801;SDS011;4940;50.900;4.672;2024-02-26T03:34:08;87.97;;;81.80;;
9801;SDS011;4940;50.900;4.672;2024-02-26T03:36:37;78.95;;;72.95;;
9801;SDS011;4940;50.900;4.672;2024-02-26T03:39:05;89.07;;;82.72;;
9801;SDS011;4940;50.900;4.672;2024-02-26T03:41:33;95.85;;;89.25;;
9801;SDS011;4940;50.900;4.672;2024-02-26T03:44:00;91.80;;;85.40;;
9801;SDS011;4940;50.900;4.672;2024-02-26T03:46:28;90.70;;;84.45;;
9801;SDS011;4940;50.900;4.672;2024-02-26T03:48:56;86.82;;;80.65;;
9801;SDS011;4940;50.900;4.672;2024-02-26T03:51:24;86.20;;;80.03;;
9801;SDS011;4940;50.900;4.672;2024-02-26T03:53:51;80.68;;;74.88;;
9801;SDS011;4940;50.900;4.672;2024-02-26T03:56:19;85.38;;;79.38;;
9801;SDS011;4940;50.900;4.672;2024-02-26T03:58:47;80.43;;;74.63;;
9801;SDS011;4940;50.900;4.672;2024-02-26T04:01:15;80.60;;;74.70;;
9801;SDS011;4940;50.900;4.672;2024-02-26T04:03:42;77.85;;;72.15;;
9801;SDS011;4940;50.900;4.672;2024-02-26T04:06:11;74.68;;;68.97;;
9801;SDS011;4940;50.900;4.672;2024-02-26T04:08:39;70.10;;;65.10;;
9801;SDS011;4940;50.900;4.672;2024-02-26T04:11:07;66.32;;;61.13;;
9801;SDS011;4940;50.900;4.672;2024-02-26T04:13:35;70.25;;;65.07;;
9801;SDS011;4940;50.900;4.672;2024-02-26T04:16:03;65.32;;;60.13;;
9801;SDS011;4940;50.900;4.672;2024-02-26T04:18:31;68.65;;;63.45;;
9801;SDS011;4940;50.900;4.672;2024-02-26T04:20:58;69.88;;;64.47;;
9801;SDS011;4940;50.900;4.672;2024-02-26T04:23:27;67.07;;;62.03;;
9801;SDS011;4940;50.900;4.672;2024-02-26T04:25:54;71.75;;;66.45;;
9801;SDS011;4940;50.900;4.672;2024-02-26T04:28:21;72.55;;;67.15;;
9801;SDS011;4940;50.900;4.672;2024-02-26T04:30:50;79.72;;;73.65;;
9801;SDS011;4940;50.900;4.672;2024-02-26T04:33:18;76.35;;;70.45;;
9801;SDS011;4940;50.900;4.672;2024-02-26T04:35:45;82.10;;;75.90;;
9801;SDS011;4940;50.900;4.672;2024-02-26T04:38:12;69.07;;;63.72;;
9801;SDS011;4940;50.900;4.672;2024-02-26T04:40:41;76.15;;;70.35;;
9801;SDS011;4940;50.900;4.672;2024-02-26T04:43:09;69.97;;;64.65;;
9801;SDS011;4940;50.900;4.672;2024-02-26T04:45:36;86.05;;;79.07;;
9801;SDS011;4940;50.900;4.672;2024-02-26T04:48:03;87.40;;;80.63;;
9801;SDS011;4940;50.900;4.672;2024-02-26T04:50:31;87.03;;;80.22;;
9801;SDS011;4940;50.900;4.672;2024-02-26T04:52:59;95.50;;;88.07;;
9801;SDS011;4940;50.900;4.672;2024-02-26T04:55:27;94.53;;;87.28;;
9801;SDS011;4940;50.900;4.672;2024-02-26T04:57:55;96.88;;;89.63;;
9801;SDS011;4940;50.900;4.672;2024-02-26T05:00:23;94.10;;;86.85;;
9801;SDS011;4940;50.900;4.672;2024-02-26T05:02:50;96.05;;;88.82;;
9801;SDS011;4940;50.900;4.672;2024-02-26T05:05:17;103.25;;;95.60;;
9801;SDS011;4940;50.900;4.672;2024-02-26T05:07:45;93.47;;;86.32;;
9801;SDS011;4940;50.900;4.672;2024-02-26T05:10:12;90.25;;;83.18;;
9801;SDS011;4940;50.900;4.672;2024-02-26T05:12:40;99.47;;;91.90;;
9801;SDS011;4940;50.900;4.672;2024-02-26T05:15:09;100.15;;;92.80;;
9801;SDS011;4940;50.900;4.672;2024-02-26T05:17:41;103.63;;;96.10;;
9801;SDS011;4940;50.900;4.672;2024-02-26T05:20:08;105.13;;;97.50;;
9801;SDS011;4940;50.900;4.672;2024-02-26T05:22:36;102.78;;;95.07;;
9801;SDS011;4940;50.900;4.672;2024-02-26T05:25:04;101.80;;;94.07;;
9801;SDS011;4940;50.900;4.672;2024-02-26T05:27:31;106.07;;;98.10;;
9801;SDS011;4940;50.900;4.672;2024-02-26T05:29:58;102.20;;;94.70;;
9801;SDS011;4940;50.900;4.672;2024-02-26T05:32:27;95.55;;;88.32;;
9801;SDS011;4940;50.900;4.672;2024-02-26T05:34:55;96.25;;;88.80;;
9801;SDS011;4940;50.900;4.672;2024-02-26T05:37:22;91.93;;;84.75;;
9801;SDS011;4940;50.900;4.672;2024-02-26T05:39:50;94.43;;;87.07;;
9801;SDS011;4940;50.900;4.672;2024-02-26T05:42:17;97.32;;;89.82;;
9801;SDS011;4940;50.900;4.672;2024-02-26T05:44:45;106.00;;;98.32;;
9801;SDS011;4940;50.900;4.672;2024-02-26T05:47:12;104.50;;;97.03;;
9801;SDS011;4940;50.900;4.672;2024-02-26T05:49:41;92.50;;;85.35;;
9801;SDS011;4940;50.900;4.672;2024-02-26T05:52:08;90.10;;;83.07;;
9801;SDS011;4940;50.900;4.672;2024-02-26T05:54:35;86.55;;;79.72;;
9801;SDS011;4940;50.900;4.672;2024-02-26T05:57:03;81.22;;;74.55;;
9801;SDS011;4940;50.900;4.672;2024-02-26T05:59:31;89.97;;;83.13;;
9801;SDS011;4940;50.900;4.672;2024-02-26T06:01:58;91.50;;;84.07;;
9801;SDS011;4940;50.900;4.672;2024-02-26T06:04:26;83.43;;;76.22;;
9801;SDS011;4940;50.900;4.672;2024-02-26T06:06:54;79.90;;;72.72;;
9801;SDS011;4940;50.900;4.672;2024-02-26T06:09:22;84.22;;;77.35;;
9801;SDS011;4940;50.900;4.672;2024-02-26T06:11:49;86.40;;;79.45;;
9801;SDS011;4940;50.900;4.672;2024-02-26T06:14:18;87.15;;;79.95;;
9801;SDS011;4940;50.900;4.672;2024-02-26T06:16:45;91.03;;;83.95;;
9801;SDS011;4940;50.900;4.672;2024-02-26T06:19:13;90.13;;;83.13;;
9801;SDS011;4940;50.900;4.672;2024-02-26T06:21:41;92.63;;;85.43;;
9801;SDS011;4940;50.900;4.672;2024-02-26T06:24:09;91.07;;;84.00;;
9801;SDS011;4940;50.900;4.672;2024-02-26T06:26:37;91.85;;;84.63;;
9801;SDS011;4940;50.900;4.672;2024-02-26T06:29:04;99.78;;;92.40;;
9801;SDS011;4940;50.900;4.672;2024-02-26T06:31:32;84.90;;;78.10;;
9801;SDS011;4940;50.900;4.672;2024-02-26T06:34:11;90.70;;;83.45;;
9801;SDS011;4940;50.900;4.672;2024-02-26T06:36:39;86.10;;;79.13;;
9801;SDS011;4940;50.900;4.672;2024-02-26T06:39:06;88.07;;;81.00;;
9801;SDS011;4940;50.900;4.672;2024-02-26T06:41:35;87.78;;;80.63;;
9801;SDS011;4940;50.900;4.672;2024-02-26T06:44:04;87.93;;;80.82;;
9801;SDS011;4940;50.900;4.672;2024-02-26T06:46:32;84.32;;;77.60;;
9801;SDS011;4940;50.900;4.672;2024-02-26T06:48:59;93.15;;;85.75;;
9801;SDS011;4940;50.900;4.672;2024-02-26T06:51:28;85.47;;;78.85;;
9801;SDS011;4940;50.900;4.672;2024-02-26T06:53:56;90.82;;;83.53;;
9801;SDS011;4940;50.900;4.672;2024-02-26T06:56:23;94.97;;;87.55;;
9801;SDS011;4940;50.900;4.672;2024-02-26T06:58:50;97.10;;;89.57;;
9801;SDS011;4940;50.900;4.672;2024-02-26T07:01:18;94.32;;;86.95;;
9801;SDS011;4940;50.900;4.672;2024-02-26T07:03:45;91.57;;;84.78;;
9801;SDS011;4940;50.900;4.672;2024-02-26T07:06:13;93.30;;;86.13;;
9801;SDS011;4940;50.900;4.672;2024-02-26T07:08:41;94.63;;;87.05;;
9801;SDS011;4940;50.900;4.672;2024-02-26T07:11:08;96.35;;;88.90;;
9801;SDS011;4940;50.900;4.672;2024-02-26T07:13:42;93.45;;;86.35;;
9801;SDS011;4940;50.900;4.672;2024-02-26T07:17:05;98.47;;;90.93;;
9801;SDS011;4940;50.900;4.672;2024-02-26T07:19:33;102.45;;;94.65;;
9801;SDS011;4940;50.900;4.672;2024-02-26T07:22:01;103.53;;;95.43;;
9801;SDS011;4940;50.900;4.672;2024-02-26T07:24:28;93.82;;;85.93;;
9801;SDS011;4940;50.900;4.672;2024-02-26T07:26:56;96.75;;;88.95;;
9801;SDS011;4940;50.900;4.672;2024-02-26T07:29:24;91.78;;;84.18;;
9801;SDS011;4940;50.900;4.672;2024-02-26T07:32:00;92.15;;;84.70;;
9801;SDS011;4940;50.900;4.672;2024-02-26T07:34:44;98.38;;;90.45;;
9801;SDS011;4940;50.900;4.672;2024-02-26T07:37:12;97.13;;;89.25;;
9801;SDS011;4940;50.900;4.672;2024-02-26T07:39:41;97.63;;;89.38;;
9801;SDS011;4940;50.900;4.672;2024-02-26T07:42:08;103.05;;;94.60;;
9801;SDS011;4940;50.900;4.672;2024-02-26T07:44:36;108.25;;;99.55;;
9801;SDS011;4940;50.900;4.672;2024-02-26T07:47:08;103.75;;;94.75;;
9801;SDS011;4940;50.900;4.672;2024-02-26T07:49:35;102.05;;;93.40;;
9801;SDS011;4940;50.900;4.672;2024-02-26T07:52:05;109.32;;;100.45;;
9801;SDS011;4940;50.900;4.672;2024-02-26T07:54:32;110.68;;;101.72;;
9801;SDS011;4940;50.900;4.672;2024-02-26T07:57:00;107.63;;;98.90;;
9801;SDS011;4940;50.900;4.672;2024-02-26T07:59:30;108.95;;;99.90;;
9801;SDS011;4940;50.900;4.672;2024-02-26T08:01:58;100.75;;;92.63;;
9801;SDS011;4940;50.900;4.672;2024-02-26T08:04:28;103.72;;;95.22;;
9801;SDS011;4940;50.900;4.672;2024-02-26T08:06:57;108.32;;;99.53;;
9801;SDS011;4940;50.900;4.672;2024-02-26T08:12:12;104.38;;;95.97;;
9801;SDS011;4940;50.900;4.672;2024-02-26T08:14:55;112.10;;;102.80;;
9801;SDS011;4940;50.900;4.672;2024-02-26T08:17:23;105.13;;;96.50;;
9801;SDS011;4940;50.900;4.672;2024-02-26T08:19:52;104.32;;;95.65;;
9801;SDS011;4940;50.900;4.672;2024-02-26T08:22:20;105.25;;;96.72;;
9801;SDS011;4940;50.900;4.672;2024-02-26T08:24:47;108.35;;;99.25;;
9801;SDS011;4940;50.900;4.672;2024-02-26T08:27:14;108.70;;;99.80;;
9801;SDS011;4940;50.900;4.672;2024-02-26T08:29:42;110.68;;;101.78;;
9801;SDS011;4940;50.900;4.672;2024-02-26T08:32:11;106.78;;;98.43;;
9801;SDS011;4940;50.900;4.672;2024-02-26T08:34:38;105.97;;;97.45;;
9801;SDS011;4940;50.900;4.672;2024-02-26T08:37:06;108.03;;;99.30;;
9801;SDS011;4940;50.900;4.672;2024-02-26T08:39:33;116.78;;;107.57;;
9801;SDS011;4940;50.900;4.672;2024-02-26T08:42:00;112.22;;;103.28;;
9801;SDS011;4940;50.900;4.672;2024-02-26T08:44:28;109.60;;;100.90;;
9801;SDS011;4940;50.900;4.672;2024-02-26T08:46:55;106.07;;;97.55;;
9801;SDS011;4940;50.900;4.672;2024-02-26T08:49:25;96.07;;;88.22;;
9801;SDS011;4940;50.900;4.672;2024-02-26T08:51:52;105.22;;;96.85;;
9801;SDS011;4940;50.900;4.672;2024-02-26T08:54:20;100.03;;;91.90;;
9801;SDS011;4940;50.900;4.672;2024-02-26T08:56:47;109.68;;;100.78;;
9801;SDS011;4940;50.900;4.672;2024-02-26T08:59:14;104.95;;;96.47;;
9801;SDS011;4940;50.900;4.672;2024-02-26T09:01:47;113.38;;;104.63;;
9801;SDS011;4940;50.900;4.672;2024-02-26T09:04:15;98.28;;;90.07;;
9801;SDS011;4940;50.900;4.672;2024-02-26T09:06:43;109.18;;;100.47;;
9801;SDS011;4940;50.900;4.672;2024-02-26T09:09:11;109.07;;;100.53;;
9801;SDS011;4940;50.900;4.672;2024-02-26T09:11:38;113.70;;;104.68;;
9801;SDS011;4940;50.900;4.672;2024-02-26T09:14:05;107.05;;;98.63;;
9801;SDS011;4940;50.900;4.672;2024-02-26T09:16:33;106.90;;;98.30;;
9801;SDS011;4940;50.900;4.672;2024-02-26T09:19:01;110.65;;;101.88;;
9801;SDS011;4940;50.900;4.672;2024-02-26T09:24:09;110.25;;;101.50;;
9801;SDS011;4940;50.900;4.672;2024-02-26T09:26:36;115.50;;;106.20;;
9801;SDS011;4940;50.900;4.672;2024-02-26T09:29:03;114.18;;;104.97;;
9801;SDS011;4940;50.900;4.672;2024-02-26T09:31:31;105.07;;;96.45;;
9801;SDS011;4940;50.900;4.672;2024-02-26T09:33:59;108.90;;;99.82;;
9801;SDS011;4940;50.900;4.672;2024-02-26T09:36:27;104.40;;;95.78;;
9801;SDS011;4940;50.900;4.672;2024-02-26T09:38:54;109.13;;;100.40;;
9801;SDS011;4940;50.900;4.672;2024-02-26T09:41:23;113.55;;;104.38;;
9801;SDS011;4940;50.900;4.672;2024-02-26T09:43:53;109.32;;;100.07;;
9801;SDS011;4940;50.900;4.672;2024-02-26T09:46:22;108.88;;;99.85;;
9801;SDS011;4940;50.900;4.672;2024-02-26T09:48:50;115.05;;;105.40;;
9801;SDS011;4940;50.900;4.672;2024-02-26T09:51:17;113.25;;;103.88;;
9801;SDS011;4940;50.900;4.672;2024-02-26T09:53:46;114.03;;;104.72;;
9801;SDS011;4940;50.900;4.672;2024-02-26T09:56:17;110.28;;;101.10;;
9801;SDS011;4940;50.900;4.672;2024-02-26T10:01:59;103.20;;;94.65;;
9801;SDS011;4940;50.900;4.672;2024-02-26T10:04:28;109.00;;;100.00;;
9801;SDS011;4940;50.900;4.672;2024-02-26T10:06:55;106.85;;;98.00;;
9801;SDS011;4940;50.900;4.672;2024-02-26T10:09:25;100.72;;;92.38;;
9801;SDS011;4940;50.900;4.672;2024-02-26T10:11:53;101.70;;;93.15;;
9801;SDS011;4940;50.900;4.672;2024-02-26T10:14:21;106.63;;;98.00;;
9801;SDS011;4940;50.900;4.672;2024-02-26T10:16:48;102.32;;;93.90;;
9801;SDS011;4940;50.900;4.672;2024-02-26T10:19:25;115.78;;;106.25;;
9801;SDS011;4940;50.900;4.672;2024-02-26T10:21:56;108.80;;;99.60;;
9801;SDS011;4940;50.900;4.672;2024-02-26T10:24:23;104.68;;;96.07;;
9801;SDS011;4940;50.900;4.672;2024-02-26T10:26:51;110.15;;;101.35;;
9801;SDS011;4940;50.900;4.672;2024-02-26T10:29:19;113.07;;;104.07;;
9801;SDS011;4940;50.900;4.672;2024-02-26T10:31:46;115.93;;;106.63;;
9801;SDS011;4940;50.900;4.672;2024-02-26T10:34:14;109.15;;;100.15;;
9801;SDS011;4940;50.900;4.672;2024-02-26T10:36:43;109.75;;;100.57;;
9801;SDS011;4940;50.900;4.672;2024-02-26T10:39:11;108.63;;;99.47;;
9801;SDS011;4940;50.900;4.672;2024-02-26T10:41:39;112.03;;;102.82;;
9801;SDS011;4940;50.900;4.672;2024-02-26T10:44:08;108.05;;;99.53;;
9801;SDS011;4940;50.900;4.672;2024-02-26T10:46:37;105.45;;;96.85;;
9801;SDS011;4940;50.900;4.672;2024-02-26T10:49:04;115.32;;;106.13;;
9801;SDS011;4940;50.900;4.672;2024-02-26T10:51:33;112.28;;;103.35;;
9801;SDS011;4940;50.900;4.672;2024-02-26T10:54:05;108.32;;;99.40;;
9801;SDS011;4940;50.900;4.672;2024-02-26T10:56:35;107.50;;;98.55;;
9801;SDS011;4940;50.900;4.672;2024-02-26T10:59:05;105.20;;;96.78;;
9801;SDS011;4940;50.900;4.672;2024-02-26T11:01:36;107.57;;;98.88;;
9801;SDS011;4940;50.900;4.672;2024-02-26T11:04:04;102.18;;;93.72;;
9801;SDS011;4940;50.900;4.672;2024-02-26T11:06:32;103.70;;;95.10;;
9801;SDS011;4940;50.900;4.672;2024-02-26T11:09:01;111.55;;;102.65;;
9801;SDS011;4940;50.900;4.672;2024-02-26T11:11:30;113.45;;;104.30;;
9801;SDS011;4940;50.900;4.672;2024-02-26T11:14:00;120.65;;;111.32;;
9801;SDS011;4940;50.900;4.672;2024-02-26T11:16:29;116.30;;;107.38;;
9801;SDS011;4940;50.900;4.672;2024-02-26T11:18:58;108.47;;;100.05;;
9801;SDS011;4940;50.900;4.672;2024-02-26T11:21:28;106.30;;;97.75;;
9801;SDS011;4940;50.900;4.672;2024-02-26T11:24:04;110.88;;;102.00;;
9801;SDS011;4940;50.900;4.672;2024-02-26T11:26:34;111.60;;;102.80;;
9801;SDS011;4940;50.900;4.672;2024-02-26T11:29:07;115.43;;;106.53;;
9801;SDS011;4940;50.900;4.672;2024-02-26T11:31:37;107.15;;;98.75;;
9801;SDS011;4940;50.900;4.672;2024-02-26T11:34:06;108.50;;;99.78;;
9801;SDS011;4940;50.900;4.672;2024-02-26T11:36:34;109.45;;;100.85;;
9801;SDS011;4940;50.900;4.672;2024-02-26T11:39:04;110.93;;;101.93;;
9801;SDS011;4940;50.900;4.672;2024-02-26T11:41:31;105.53;;;97.07;;
9801;SDS011;4940;50.900;4.672;2024-02-26T11:44:01;111.00;;;101.95;;
9801;SDS011;4940;50.900;4.672;2024-02-26T11:46:29;107.10;;;98.32;;
9801;SDS011;4940;50.900;4.672;2024-02-26T11:49:00;105.25;;;96.75;;
9801;SDS011;4940;50.900;4.672;2024-02-26T11:51:32;107.85;;;99.13;;
9801;SDS011;4940;50.900;4.672;2024-02-26T11:54:00;107.47;;;98.88;;
9801;SDS011;4940;50.900;4.672;2024-02-26T11:56:27;112.28;;;103.45;;
9801;SDS011;4940;50.900;4.672;2024-02-26T11:59:01;105.72;;;97.15;;
9801;SDS011;4940;50.900;4.672;2024-02-26T12:01:43;109.57;;;100.78;;
9801;SDS011;4940;50.900;4.672;2024-02-26T12:04:13;106.70;;;98.00;;
9801;SDS011;4940;50.900;4.672;2024-02-26T12:06:46;101.03;;;92.63;;
9801;SDS011;4940;50.900;4.672;2024-02-26T12:09:32;104.63;;;96.03;;
9801;SDS011;4940;50.900;4.672;2024-02-26T12:12:01;101.07;;;92.78;;
9801;SDS011;4940;50.900;4.672;2024-02-26T12:14:32;110.15;;;101.32;;
9801;SDS011;4940;50.900;4.672;2024-02-26T12:17:00;109.82;;;100.78;;
9801;SDS011;4940;50.900;4.672;2024-02-26T12:19:31;98.80;;;90.30;;
9801;SDS011;4940;50.900;4.672;2024-02-26T12:21:58;95.70;;;87.60;;
9801;SDS011;4940;50.900;4.672;2024-02-26T12:24:26;101.07;;;92.65;;
9801;SDS011;4940;50.900;4.672;2024-02-26T12:26:53;102.07;;;93.75;;
9801;SDS011;4940;50.900;4.672;2024-02-26T12:29:21;103.60;;;95.13;;
9801;SDS011;4940;50.900;4.672;2024-02-26T12:31:50;99.32;;;90.78;;
9801;SDS011;4940;50.900;4.672;2024-02-26T12:34:17;97.38;;;89.07;;
9801;SDS011;4940;50.900;4.672;2024-02-26T12:36:45;101.82;;;93.50;;
9801;SDS011;4940;50.900;4.672;2024-02-26T12:39:12;97.38;;;89.40;;
9801;SDS011;4940;50.900;4.672;2024-02-26T12:41:40;90.03;;;82.18;;
9801;SDS011;4940;50.900;4.672;2024-02-26T12:44:11;104.55;;;95.95;;
9801;SDS011;4940;50.900;4.672;2024-02-26T12:46:39;103.93;;;95.43;;
9801;SDS011;4940;50.900;4.672;2024-02-26T12:51:47;106.32;;;97.75;;
9801;SDS011;4940;50.900;4.672;2024-02-26T12:54:14;103.97;;;95.47;;
9801;SDS011;4940;50.900;4.672;2024-02-26T12:56:42;106.18;;;97.43;;
9801;SDS011;4940;50.900;4.672;2024-02-26T12:59:11;99.03;;;90.93;;
9801;SDS011;4940;50.900;4.672;2024-02-26T13:01:39;98.65;;;90.55;;
9801;SDS011;4940;50.900;4.672;2024-02-26T13:04:07;100.05;;;92.15;;
9801;SDS011;4940;50.900;4.672;2024-02-26T13:06:35;106.55;;;98.07;;
9801;SDS011;4940;50.900;4.672;2024-02-26T13:09:04;99.25;;;91.05;;
9801;SDS011;4940;50.900;4.672;2024-02-26T13:11:31;103.25;;;95.03;;
9801;SDS011;4940;50.900;4.672;2024-02-26T13:13:59;96.53;;;88.63;;
9801;SDS011;4940;50.900;4.672;2024-02-26T13:16:26;99.00;;;90.93;;
9801;SDS011;4940;50.900;4.672;2024-02-26T13:18:54;98.40;;;90.35;;
9801;SDS011;4940;50.900;4.672;2024-02-26T13:21:21;102.72;;;94.45;;
9801;SDS011;4940;50.900;4.672;2024-02-26T13:23:52;99.97;;;91.75;;
9801;SDS011;4940;50.900;4.672;2024-02-26T13:26:21;95.57;;;87.93;;
9801;SDS011;4940;50.900;4.672;2024-02-26T13:28:59;96.80;;;89.03;;
9801;SDS011;4940;50.900;4.672;2024-02-26T13:31:26;101.95;;;93.72;;
9801;SDS011;4940;50.900;4.672;2024-02-26T13:33:54;93.93;;;86.03;;
9801;SDS011;4940;50.900;4.672;2024-02-26T13:36:21;85.22;;;78.00;;
9801;SDS011;4940;50.900;4.672;2024-02-26T13:38:52;91.07;;;83.45;;
9801;SDS011;4940;50.900;4.672;2024-02-26T13:41:21;96.25;;;88.15;;
9801;SDS011;4940;50.900;4.672;2024-02-26T13:43:48;99.72;;;91.40;;
9801;SDS011;4940;50.900;4.672;2024-02-26T13:46:16;99.28;;;91.07;;
9801;SDS011;4940;50.900;4.672;2024-02-26T13:48:43;105.28;;;96.13;;
9801;SDS011;4940;50.900;4.672;2024-02-26T13:51:11;97.80;;;89.57;;
9801;SDS011;4940;50.900;4.672;2024-02-26T13:53:38;106.50;;;97.85;;
9801;SDS011;4940;50.900;4.672;2024-02-26T13:56:06;104.20;;;95.63;;
9801;SDS011;4940;50.900;4.672;2024-02-26T13:58:34;103.43;;;94.97;;
9801;SDS011;4940;50.900;4.672;2024-02-26T14:01:02;106.97;;;98.18;;
9801;SDS011;4940;50.900;4.672;2024-02-26T14:03:30;105.03;;;96.18;;
9801;SDS011;4940;50.900;4.672;2024-02-26T14:05:58;103.40;;;95.00;;
9801;SDS011;4940;50.900;4.672;2024-02-26T14:08:25;105.22;;;96.35;;
9801;SDS011;4940;50.900;4.672;2024-02-26T14:10:53;97.88;;;89.38;;
9801;SDS011;4940;50.900;4.672;2024-02-26T14:13:20;96.72;;;88.38;;
9801;SDS011;4940;50.900;4.672;2024-02-26T14:15:49;100.53;;;92.13;;
9801;SDS011;4940;50.900;4.672;2024-02-26T14:18:17;102.70;;;93.88;;
9801;SDS011;4940;50.900;4.672;2024-02-26T14:20:44;90.45;;;82.47;;
9801;SDS011;4940;50.900;4.672;2024-02-26T14:23:12;101.88;;;93.28;;
9801;SDS011;4940;50.900;4.672;2024-02-26T14:25:39;107.88;;;99.13;;
9801;SDS011;4940;50.900;4.672;2024-02-26T14:28:06;107.53;;;98.53;;
9801;SDS011;4940;50.900;4.672;2024-02-26T14:30:34;104.85;;;96.05;;
9801;SDS011;4940;50.900;4.672;2024-02-26T14:33:03;105.70;;;97.13;;
9801;SDS011;4940;50.900;4.672;2024-02-26T14:35:30;111.13;;;102.13;;
9801;SDS011;4940;50.900;4.672;2024-02-26T14:37:57;107.82;;;98.90;;
9801;SDS011;4940;50.900;4.672;2024-02-26T14:40:26;105.05;;;96.40;;
9801;SDS011;4940;50.900;4.672;2024-02-26T14:42:55;106.85;;;98.18;;
9801;SDS011;4940;50.900;4.672;2024-02-26T14:45:25;103.57;;;95.13;;
9801;SDS011;4940;50.900;4.672;2024-02-26T14:47:52;107.95;;;98.97;;
9801;SDS011;4940;50.900;4.672;2024-02-26T14:50:21;110.18;;;101.03;;
9801;SDS011;4940;50.900;4.672;2024-02-26T14:52:48;109.47;;;100.13;;
9801;SDS011;4940;50.900;4.672;2024-02-26T14:55:16;106.80;;;98.10;;
9801;SDS011;4940;50.900;4.672;2024-02-26T14:57:43;106.57;;;97.50;;